createdAt,value
2018-08-24T00:00:15.383Z,27.48
2018-08-24T00:02:19.366Z,27.38
2018-08-24T00:04:22.928Z,27.50
2018-08-24T00:06:26.552Z,27.51
2018-08-24T00:08:30.524Z,27.52
2018-08-24T00:10:34.025Z,27.28
2018-08-24T00:12:37.664Z,26.88
2018-08-24T00:14:42.474Z,26.62
2018-08-24T00:16:50.606Z,26.66
2018-08-24T00:18:55.925Z,26.81
2018-08-24T00:21:02.181Z,26.78
2018-08-24T00:23:05.692Z,26.71
2018-08-24T00:25:09.244Z,26.76
2018-08-24T00:27:13.104Z,26.97
2018-08-24T00:29:16.592Z,26.89
2018-08-24T00:31:20.163Z,26.99
2018-08-24T00:33:24.114Z,27.06
2018-08-24T00:35:27.889Z,27.09
2018-08-24T00:37:31.843Z,27.17
2018-08-24T00:39:43.893Z,26.98
2018-08-24T00:41:48.414Z,27.00
2018-08-24T00:43:55.824Z,26.67
2018-08-24T00:46:03.258Z,26.69
2018-08-24T00:48:10.818Z,26.25
2018-08-24T00:50:14.319Z,26.37
2018-08-24T00:52:18.191Z,26.42
2018-08-24T00:54:21.884Z,26.63
2018-08-24T00:56:25.339Z,26.81
2018-08-24T00:58:29.536Z,27.03
2018-08-24T01:00:38.372Z,27.18
2018-08-24T01:02:42.051Z,27.12
2018-08-24T01:04:45.907Z,27.22
2018-08-24T01:06:50.013Z,27.05
2018-08-24T01:08:57.868Z,26.96
2018-08-24T01:11:02.966Z,27.10
2018-08-24T01:13:16.273Z,27.21
2018-08-24T01:15:19.866Z,27.28
2018-08-24T01:17:29.208Z,27.26
2018-08-24T01:19:32.951Z,27.31
2018-08-24T01:21:36.814Z,27.35
2018-08-24T01:23:40.952Z,27.28
2018-08-24T01:25:44.771Z,27.21
2018-08-24T01:27:48.411Z,27.34
2018-08-24T01:29:52.208Z,27.34
2018-08-24T01:31:55.963Z,27.26
2018-08-24T01:34:02.835Z,27.23
2018-08-24T01:36:10.946Z,27.28
2018-08-24T01:38:18.111Z,27.32
2018-08-24T01:40:21.850Z,27.22
2018-08-24T01:42:26.187Z,27.42
2018-08-24T01:44:30.119Z,27.28
2018-08-24T01:46:33.679Z,27.14
2018-08-24T01:48:38.360Z,27.15
2018-08-24T01:50:42.889Z,27.22
2018-08-24T01:52:46.801Z,27.29
2018-08-24T01:54:50.670Z,27.06
2018-08-24T01:56:54.466Z,26.92
2018-08-24T01:59:00.899Z,27.18
2018-08-24T02:01:09.776Z,27.15
2018-08-24T02:03:19.739Z,27.06
2018-08-24T02:05:23.316Z,27.20
2018-08-24T02:07:27.430Z,27.23
2018-08-24T02:09:40.283Z,27.40
2018-08-24T02:11:46.842Z,27.36
2018-08-24T02:13:57.605Z,27.27
2018-08-24T02:16:01.046Z,27.43
2018-08-24T02:18:09.851Z,27.14
2018-08-24T02:20:19.172Z,27.21
2018-08-24T02:22:22.809Z,27.27
2018-08-24T02:24:26.545Z,27.22
2018-08-24T02:26:32.889Z,27.36
2018-08-24T02:28:40.532Z,27.35
2018-08-24T02:30:46.896Z,27.29
2018-08-24T02:32:53.714Z,27.24
2018-08-24T02:34:59.639Z,27.33
2018-08-24T02:37:03.448Z,27.34
2018-08-24T02:39:11.556Z,27.37
2018-08-24T02:41:15.222Z,27.42
2018-08-24T02:43:18.764Z,27.40
2018-08-24T02:45:23.002Z,27.32
2018-08-24T02:47:26.544Z,27.28
2018-08-24T02:49:30.339Z,27.27
2018-08-24T02:51:34.303Z,27.29
2018-08-24T02:53:39.335Z,27.24
2018-08-24T02:55:46.859Z,27.36
2018-08-24T02:57:54.830Z,27.39
2018-08-24T02:59:59.929Z,27.27
2018-08-24T03:02:03.762Z,27.38
2018-08-24T03:04:07.632Z,27.20
2018-08-24T03:06:11.417Z,27.05
2018-08-24T03:08:16.733Z,27.03
2018-08-24T03:10:20.564Z,27.15
2018-08-24T03:12:24.705Z,27.12
2018-08-24T03:14:28.171Z,27.22
2018-08-24T03:16:33.058Z,27.30
2018-08-24T03:18:36.576Z,27.16
2018-08-24T03:20:40.465Z,27.04
2018-08-24T03:22:47.552Z,26.89
2018-08-24T03:24:53.818Z,26.99
2018-08-24T03:26:59.867Z,27.16
2018-08-24T03:29:03.855Z,26.93
2018-08-24T03:31:07.524Z,27.10
2018-08-24T03:33:11.571Z,27.15
2018-08-24T03:35:15.419Z,26.95
2018-08-24T03:37:18.857Z,26.95
2018-08-24T03:39:22.895Z,27.06
2018-08-24T03:41:26.843Z,26.80
2018-08-24T03:43:30.434Z,26.99
2018-08-24T03:45:33.872Z,26.79
2018-08-24T03:47:37.919Z,27.05
2018-08-24T03:49:41.439Z,26.90
2018-08-24T03:52:48.041Z,26.81
2018-08-24T03:54:54.473Z,27.11
2018-08-24T03:56:59.899Z,27.02
2018-08-24T03:59:05.688Z,26.76
2018-08-24T04:01:10.704Z,26.93
2018-08-24T04:03:14.185Z,26.74
2018-08-24T04:05:17.663Z,26.79
2018-08-24T04:07:21.676Z,26.82
2018-08-24T04:09:25.236Z,27.03
2018-08-24T04:11:33.612Z,27.00
2018-08-24T04:13:37.418Z,26.73
2018-08-24T04:15:41.059Z,26.83
2018-08-24T04:17:45.395Z,26.96
2018-08-24T04:19:49.358Z,26.93
2018-08-24T04:21:54.670Z,26.91
2018-08-24T04:24:02.267Z,26.76
2018-08-24T04:26:10.872Z,26.82
2018-08-24T04:28:14.469Z,26.87
2018-08-24T04:30:17.947Z,26.93
2018-08-24T04:32:21.774Z,26.67
2018-08-24T04:34:26.511Z,26.81
2018-08-24T04:36:34.146Z,26.83
2018-08-24T04:38:38.517Z,26.77
2018-08-24T04:40:42.467Z,26.92
2018-08-24T04:42:47.759Z,26.92
2018-08-24T04:44:52.869Z,27.14
2018-08-24T04:46:59.166Z,26.97
2018-08-24T04:49:11.927Z,26.85
2018-08-24T04:51:18.119Z,26.91
2018-08-24T04:53:22.308Z,26.68
2018-08-24T04:55:27.762Z,26.76
2018-08-24T04:57:31.858Z,26.70
2018-08-24T05:02:18.857Z,26.73
2018-08-24T05:04:28.985Z,26.86
2018-08-24T05:06:32.847Z,26.90
2018-08-24T05:08:36.419Z,27.04
2018-08-24T05:10:47.165Z,27.02
2018-08-24T05:13:19.647Z,27.12
2018-08-24T05:15:25.494Z,27.15
2018-08-24T05:17:29.626Z,27.29
2018-08-24T05:19:35.263Z,27.27
2018-08-24T05:21:54.443Z,26.99
2018-08-24T05:23:58.688Z,26.95
2018-08-24T05:26:06.520Z,26.93
2018-08-24T05:28:12.705Z,27.13
2018-08-24T05:30:16.628Z,27.18
2018-08-24T05:32:22.794Z,26.86
2018-08-24T05:34:26.369Z,26.81
2018-08-24T05:36:31.447Z,27.08
2018-08-24T05:38:35.662Z,26.66
2018-08-24T05:40:45.998Z,26.36
2018-08-24T05:42:54.843Z,26.34
2018-08-24T05:44:59.993Z,26.49
2018-08-24T05:47:06.364Z,26.54
2018-08-24T05:49:10.481Z,26.24
2018-08-24T05:51:17.867Z,25.97
2018-08-24T05:53:25.451Z,26.42
2018-08-24T05:55:29.426Z,26.72
2018-08-24T05:57:34.689Z,26.54
2018-08-24T05:59:42.624Z,26.55
2018-08-24T06:01:52.282Z,26.73
2018-08-24T06:04:00.276Z,26.82
2018-08-24T06:06:04.698Z,27.04
2018-08-24T06:08:18.399Z,26.88
2018-08-24T06:10:30.861Z,26.57
2018-08-24T06:12:37.540Z,26.55
2018-08-24T06:14:44.691Z,26.62
2018-08-24T06:16:58.007Z,26.67
2018-08-24T06:19:04.043Z,26.63
2018-08-24T06:21:14.110Z,26.61
2018-08-24T06:23:20.985Z,26.80
2018-08-24T06:25:26.394Z,26.40
2018-08-24T06:27:33.858Z,26.32
2018-08-24T06:29:39.125Z,26.39
2018-08-24T06:31:52.325Z,26.45
2018-08-24T06:33:59.856Z,26.85
2018-08-24T06:36:10.533Z,26.86
2018-08-24T06:38:20.757Z,27.15
2018-08-24T06:40:25.483Z,27.13
2018-08-24T06:42:35.458Z,27.20
2018-08-24T06:44:45.570Z,27.27
2018-08-24T06:46:55.766Z,27.41
2018-08-24T06:49:07.837Z,27.30
2018-08-24T06:51:12.032Z,27.43
2018-08-24T06:53:17.425Z,27.63
2018-08-24T06:55:21.010Z,27.50
2018-08-24T06:57:25.828Z,27.43
2018-08-24T06:59:38.322Z,27.33
2018-08-24T07:01:44.904Z,27.36
2018-08-24T07:03:49.207Z,27.33
2018-08-24T07:05:58.734Z,27.34
2018-08-24T07:08:05.023Z,27.32
2018-08-24T07:10:10.947Z,27.38
2018-08-24T07:12:15.163Z,27.42
2018-08-24T07:14:22.529Z,27.24
2018-08-24T07:16:26.925Z,27.30
2018-08-24T07:18:38.136Z,27.46
2018-08-24T07:20:46.022Z,27.35
2018-08-24T07:22:50.078Z,27.45
2018-08-24T07:25:02.106Z,27.44
2018-08-24T07:27:14.212Z,27.21
2018-08-24T07:29:18.486Z,27.33
2018-08-24T07:31:25.397Z,27.53
2018-08-24T07:33:29.184Z,27.35
2018-08-24T07:35:38.550Z,27.53
2018-08-24T07:37:43.767Z,27.47
2018-08-24T07:39:48.136Z,27.64
2018-08-24T07:41:53.148Z,27.35
2018-08-24T07:44:02.818Z,27.56
2018-08-24T07:46:08.356Z,27.71
2018-08-24T07:48:18.303Z,27.78
2018-08-24T07:50:23.160Z,27.80
2018-08-24T07:52:29.264Z,27.74
2018-08-24T07:54:36.510Z,27.76
2018-08-24T07:56:43.497Z,27.77
2018-08-24T07:58:49.331Z,27.76
2018-08-24T08:00:55.995Z,27.84
2018-08-24T08:03:03.719Z,27.87
2018-08-24T08:05:16.039Z,27.91
2018-08-24T08:07:21.486Z,27.81
2018-08-24T08:09:26.201Z,27.49
2018-08-24T08:11:47.332Z,27.73
2018-08-24T08:13:51.930Z,27.69
2018-08-24T08:15:58.638Z,27.70
2018-08-24T08:18:09.210Z,27.61
2018-08-24T08:20:14.866Z,27.61
2018-08-24T08:22:31.562Z,27.50
2018-08-24T08:24:35.642Z,27.51
2018-08-24T08:26:41.839Z,27.49
2018-08-24T08:28:47.848Z,27.46
2018-08-24T08:30:54.815Z,27.69
2018-08-24T08:32:58.689Z,27.64
2018-08-24T08:35:02.895Z,27.66
2018-08-24T08:37:07.321Z,27.65
2018-08-24T08:39:15.738Z,27.77
2018-08-24T08:41:20.421Z,27.88
2018-08-24T08:43:24.616Z,27.66
2018-08-24T08:45:28.239Z,27.79
2018-08-24T08:47:32.698Z,27.89
2018-08-24T08:49:43.685Z,27.85
2018-08-24T08:51:50.859Z,27.76
2018-08-24T08:53:58.943Z,27.82
2018-08-24T08:56:03.874Z,27.84
2018-08-24T08:58:07.849Z,27.68
2018-08-24T09:00:12.488Z,27.74
2018-08-24T09:02:25.359Z,27.79
2018-08-24T09:04:29.208Z,27.77
2018-08-24T09:06:37.617Z,27.79
2018-08-24T09:08:42.545Z,27.82
2018-08-24T09:10:51.988Z,27.91
2018-08-24T09:13:01.019Z,27.93
2018-08-24T09:15:07.470Z,27.96
2018-08-24T09:17:31.997Z,27.90
2018-08-24T09:19:40.949Z,28.00
2018-08-24T09:21:55.892Z,27.88
2018-08-24T09:24:07.617Z,28.10
2018-08-24T09:26:17.012Z,28.04
2018-08-24T09:28:35.788Z,28.35
2018-08-24T09:30:52.729Z,28.35
2018-08-24T09:32:58.487Z,28.34
2018-08-24T09:35:02.372Z,28.43
2018-08-24T09:37:13.976Z,28.44
2018-08-24T09:39:22.556Z,28.47
2018-08-24T09:41:31.156Z,28.28
2018-08-24T09:43:40.917Z,28.25
2018-08-24T09:45:44.904Z,28.14
2018-08-24T09:47:55.023Z,28.05
2018-08-24T09:50:05.437Z,28.22
2018-08-24T09:52:15.399Z,28.26
2018-08-24T09:54:27.453Z,28.30
2018-08-24T09:56:36.065Z,28.23
2018-08-24T09:58:40.250Z,28.24
2018-08-24T10:00:51.141Z,28.28
2018-08-24T10:07:16.552Z,28.23
2018-08-24T10:09:21.410Z,28.42
2018-08-24T10:11:25.654Z,28.32
2018-08-24T10:13:30.840Z,28.21
2018-08-24T10:15:34.762Z,28.11
2018-08-24T10:17:41.473Z,28.28
2018-08-24T10:19:45.142Z,28.37
2018-08-24T10:21:48.977Z,28.40
2018-08-24T10:23:53.150Z,28.29
2018-08-24T10:26:00.506Z,28.33
2018-08-24T10:28:06.409Z,28.31
2018-08-24T10:30:16.538Z,28.47
2018-08-24T10:32:20.206Z,28.37
2018-08-24T10:34:23.885Z,28.16
2018-08-24T10:36:27.764Z,28.41
2018-08-24T10:38:31.214Z,28.41
2018-08-24T10:40:34.711Z,28.47
2018-08-24T10:42:38.676Z,28.55
2018-08-24T10:44:42.180Z,28.38
2018-08-24T10:46:45.624Z,28.13
2018-08-24T10:48:49.628Z,28.22
2018-08-24T10:50:53.357Z,28.29
2018-08-24T10:52:57.511Z,28.23
2018-08-24T10:55:04.337Z,28.16
2018-08-24T10:57:10.785Z,28.06
2018-08-24T10:59:17.820Z,27.92
2018-08-24T11:01:22.560Z,28.04
2018-08-24T11:03:26.428Z,28.14
2018-08-24T11:05:32.414Z,27.97
2018-08-24T11:07:36.971Z,28.08
2018-08-24T11:09:41.486Z,27.90
2018-08-24T11:11:45.257Z,27.66
2018-08-24T11:13:49.561Z,27.85
2018-08-24T11:15:53.457Z,27.85
2018-08-24T11:18:02.764Z,27.79
2018-08-24T11:20:11.814Z,27.66
2018-08-24T11:22:18.775Z,27.61
2018-08-24T11:24:24.639Z,27.55
2018-08-24T11:26:28.668Z,27.53
2018-08-24T11:28:32.527Z,27.49
2018-08-24T11:30:36.383Z,27.43
2018-08-24T11:32:44.247Z,27.43
2018-08-24T11:34:49.357Z,27.24
2018-08-24T11:36:57.093Z,27.15
2018-08-24T11:39:01.207Z,27.16
2018-08-24T11:41:05.410Z,27.22
2018-08-24T11:43:09.871Z,26.92
2018-08-24T11:45:13.795Z,26.59
2018-08-24T11:47:20.331Z,26.73
2018-08-24T11:49:25.070Z,26.92
2018-08-24T11:51:29.452Z,26.91
2018-08-24T11:53:33.625Z,26.78
2018-08-24T11:55:37.399Z,26.81
2018-08-24T11:57:45.579Z,26.80
2018-08-24T11:59:56.517Z,26.88
2018-08-24T12:02:01.589Z,27.13
2018-08-24T12:04:06.038Z,27.27
2018-08-24T12:06:09.935Z,27.00
2018-08-24T12:08:16.666Z,26.71
2018-08-24T12:10:22.424Z,26.63
2018-08-24T12:12:25.981Z,26.89
2018-08-24T12:14:29.556Z,26.73
2018-08-24T12:16:33.530Z,26.50
2018-08-24T12:18:37.393Z,26.50
2018-08-24T12:20:41.143Z,26.10
2018-08-24T12:22:48.094Z,26.08
2018-08-24T12:24:54.489Z,25.95
2018-08-24T12:27:00.701Z,25.49
2018-08-24T12:29:05.378Z,25.07
2018-08-24T12:31:09.635Z,25.26
2018-08-24T12:33:13.356Z,25.62
2018-08-24T12:35:17.467Z,25.10
2018-08-24T12:37:21.423Z,25.33
2018-08-24T12:39:24.962Z,25.31
2018-08-24T12:41:29.514Z,25.36
2018-08-24T12:43:33.482Z,25.28
2018-08-24T12:45:37.056Z,25.59
2018-08-24T12:47:41.109Z,25.86
2018-08-24T12:49:44.627Z,25.56
2018-08-24T12:51:50.252Z,25.53
2018-08-24T12:53:58.006Z,25.91
2018-08-24T12:56:10.091Z,25.39
2018-08-24T12:58:13.904Z,25.59
2018-08-24T13:00:17.880Z,25.15
2018-08-24T13:02:21.982Z,25.36
2018-08-24T13:04:26.115Z,25.79
2018-08-24T13:06:29.710Z,25.38
2018-08-24T13:08:33.655Z,24.87
2018-08-24T13:10:37.646Z,24.70
2018-08-24T13:12:42.073Z,24.95
2018-08-24T13:14:46.224Z,24.78
2018-08-24T13:16:49.936Z,24.88
2018-08-24T13:18:55.478Z,24.53
2018-08-24T13:21:03.368Z,24.64
2018-08-24T13:23:11.019Z,25.04
2018-08-24T13:25:15.245Z,24.69
2018-08-24T13:27:19.358Z,24.86
2018-08-24T13:29:27.063Z,24.91
2018-08-24T13:33:42.975Z,25.02
2018-08-24T13:35:48.426Z,25.44
2018-08-24T13:37:52.904Z,25.37
2018-08-24T13:39:56.856Z,24.58
2018-08-24T13:42:03.402Z,24.72
2018-08-24T13:44:10.068Z,25.17
2018-08-24T13:46:21.475Z,24.94
2018-08-24T13:48:26.906Z,25.20
2018-08-24T13:50:31.902Z,25.50
2018-08-24T13:52:38.764Z,25.60
2018-08-24T13:54:44.659Z,25.55
2018-08-24T13:56:49.590Z,25.22
2018-08-24T13:58:53.908Z,25.72
2018-08-24T14:00:58.706Z,25.79
2018-08-24T14:03:07.618Z,26.07
2018-08-24T14:05:13.898Z,25.67
2018-08-24T14:07:20.940Z,26.16
2018-08-24T14:09:25.337Z,26.27
2018-08-24T14:11:29.217Z,26.01
2018-08-24T14:13:33.063Z,26.21
2018-08-24T14:15:37.676Z,26.85
2018-08-24T14:17:41.588Z,27.02
2018-08-24T14:19:45.271Z,27.20
2018-08-24T14:21:49.098Z,26.91
2018-08-24T14:23:52.968Z,27.12
2018-08-24T14:25:56.926Z,27.78
2018-08-24T14:28:02.269Z,28.09
2018-08-24T14:30:11.430Z,28.12
2018-08-24T14:32:19.335Z,27.99
2018-08-24T14:34:28.245Z,27.89
2018-08-24T14:36:34.071Z,27.91
2018-08-24T14:38:40.405Z,27.63
2018-08-24T14:40:47.769Z,27.94
2018-08-24T14:42:55.423Z,28.35
2018-08-24T14:45:01.662Z,28.18
2018-08-24T14:47:06.666Z,28.42
2018-08-24T14:49:10.891Z,28.34
2018-08-24T14:51:15.181Z,28.20
2018-08-24T14:53:19.492Z,28.29
2018-08-24T14:55:24.034Z,28.45
2018-08-24T14:57:27.703Z,27.82
2018-08-24T14:59:33.105Z,28.15
2018-08-24T15:01:37.881Z,28.32
2018-08-24T15:03:43.442Z,28.37
2018-08-24T15:05:51.595Z,28.48
2018-08-24T15:07:57.085Z,28.20
2018-08-24T15:10:06.130Z,28.27
2018-08-24T15:12:10.337Z,28.48
2018-08-24T15:14:14.574Z,28.37
2018-08-24T15:16:18.387Z,28.35
2018-08-24T15:18:22.518Z,28.17
2018-08-24T15:20:26.353Z,28.04
2018-08-24T15:22:32.501Z,27.89
2018-08-24T15:24:36.868Z,27.97
2018-08-24T15:26:40.657Z,27.67
2018-08-24T15:28:45.789Z,27.54
2018-08-24T15:30:53.930Z,27.33
2018-08-24T15:33:00.320Z,27.65
2018-08-24T15:35:19.050Z,27.59
2018-08-24T15:37:23.380Z,27.49
2018-08-24T15:39:27.178Z,27.18
2018-08-24T15:41:30.735Z,27.31
2018-08-24T15:43:34.821Z,26.97
2018-08-24T15:45:38.516Z,26.96
2018-08-24T15:47:42.016Z,27.20
2018-08-24T15:49:46.079Z,27.23
2018-08-24T15:51:49.848Z,27.19
2018-08-24T15:53:57.303Z,27.00
2018-08-24T15:56:03.289Z,27.03
2018-08-24T15:58:08.509Z,27.13
2018-08-24T16:00:12.099Z,26.74
2018-08-24T16:02:15.635Z,26.75
2018-08-24T16:04:19.467Z,26.28
2018-08-24T16:06:23.010Z,26.36
2018-08-24T16:08:27.158Z,26.34
2018-08-24T16:10:30.707Z,25.63
2018-08-24T16:12:34.624Z,25.84
2018-08-24T16:14:38.860Z,25.72
2018-08-24T16:16:42.603Z,25.58
2018-08-24T16:18:50.569Z,25.66
2018-08-24T16:20:56.815Z,25.81
2018-08-24T16:23:03.818Z,25.99
2018-08-24T16:25:13.351Z,26.32
2018-08-24T16:27:22.394Z,26.05
2018-08-24T16:29:26.038Z,25.84
2018-08-24T16:31:29.609Z,25.55
2018-08-24T16:33:34.374Z,25.52
2018-08-24T16:35:38.133Z,25.96
2018-08-24T16:37:41.609Z,26.17
2018-08-24T16:39:45.452Z,25.88
2018-08-24T16:41:48.953Z,25.93
2018-08-24T16:43:53.129Z,26.16
2018-08-24T16:45:57.461Z,25.88
2018-08-24T16:48:04.904Z,25.95
2018-08-24T16:50:09.772Z,25.91
2018-08-24T16:52:19.555Z,25.59
2018-08-24T16:54:23.190Z,25.80
2018-08-24T16:56:26.833Z,25.78
2018-08-24T16:58:32.131Z,25.49
2018-08-24T17:00:35.858Z,25.83
2018-08-24T17:02:40.033Z,25.44
2018-08-24T17:04:44.289Z,25.86
2018-08-24T17:06:48.232Z,25.48
2018-08-24T17:08:52.159Z,25.42
2018-08-24T17:10:56.714Z,25.63
2018-08-24T17:13:02.656Z,25.67
2018-08-24T17:15:07.259Z,25.63
2018-08-24T17:17:15.855Z,25.70
2018-08-24T17:19:23.457Z,25.67
2018-08-24T17:21:30.376Z,25.96
2018-08-24T17:23:36.222Z,25.82
2018-08-24T17:25:40.264Z,26.08
2018-08-24T17:27:45.354Z,25.85
2018-08-24T17:29:50.263Z,25.80
2018-08-24T17:31:54.426Z,25.64
2018-08-24T17:33:59.026Z,25.59
2018-08-24T17:36:03.696Z,25.67
2018-08-24T17:38:08.151Z,25.44
2018-08-24T17:40:16.411Z,25.11
2018-08-24T17:42:20.436Z,25.25
2018-08-24T17:44:27.395Z,25.17
2018-08-24T17:46:30.960Z,25.12
2018-08-24T17:48:35.254Z,24.97
2018-08-24T17:50:39.074Z,24.91
2018-08-24T17:52:47.557Z,24.69
2018-08-24T17:54:54.494Z,25.12
2018-08-24T17:57:01.581Z,25.01
2018-08-24T17:59:05.341Z,24.72
2018-08-24T18:01:09.529Z,24.72
2018-08-24T18:03:13.362Z,24.77
2018-08-24T18:05:21.358Z,24.81
2018-08-24T18:07:25.790Z,24.72
2018-08-24T18:09:29.403Z,24.80
2018-08-24T18:11:33.675Z,24.81
2018-08-24T18:13:39.145Z,24.92
2018-08-24T18:15:43.553Z,24.71
2018-08-24T18:17:47.315Z,24.90
2018-08-24T18:19:51.208Z,25.02
2018-08-24T18:21:55.228Z,24.88
2018-08-24T18:24:03.352Z,24.62
2018-08-24T18:26:12.767Z,24.65
2018-08-24T18:28:16.724Z,24.20
2018-08-24T18:30:20.371Z,24.22
2018-08-24T18:32:24.269Z,24.41
2018-08-24T18:34:33.394Z,24.42
2018-08-24T18:36:37.014Z,24.68
2018-08-24T18:38:40.534Z,24.58
2018-08-24T18:41:16.821Z,24.69
2018-08-24T18:43:20.415Z,24.60
2018-08-24T18:45:26.904Z,24.75
2018-08-24T18:47:30.462Z,24.48
2018-08-24T18:49:34.404Z,24.40
2018-08-24T18:51:39.274Z,24.34
2018-08-24T18:53:42.806Z,24.49
2018-08-24T18:55:49.016Z,23.93
2018-08-24T18:57:53.301Z,24.15
2018-08-24T18:59:57.194Z,24.30
2018-08-24T19:02:04.997Z,24.36
2018-08-24T19:04:11.464Z,24.31
2018-08-24T19:06:21.777Z,24.43
2018-08-24T19:08:25.431Z,24.15
2018-08-24T19:10:31.624Z,24.19
2018-08-24T19:12:35.495Z,24.39
2018-08-24T19:14:39.359Z,24.15
2018-08-24T19:16:43.637Z,24.23
2018-08-24T19:18:52.477Z,24.37
2018-08-24T19:21:03.763Z,24.31
2018-08-24T19:23:12.782Z,24.59
2018-08-24T19:25:17.567Z,24.47
2018-08-24T19:27:21.891Z,24.48
2018-08-24T19:29:33.426Z,24.68
2018-08-24T19:31:37.397Z,24.84
2018-08-24T19:33:41.157Z,24.58
2018-08-24T19:35:47.003Z,24.45
2018-08-24T19:37:50.937Z,24.17
2018-08-24T19:40:00.197Z,24.57
2018-08-24T19:42:11.457Z,24.61
2018-08-24T19:44:16.464Z,24.78
2018-08-24T19:46:23.472Z,24.41
2018-08-24T19:48:32.416Z,24.37
2018-08-24T19:50:39.011Z,24.36
2018-08-24T19:52:43.188Z,24.37
2018-08-24T19:54:47.245Z,24.35
2018-08-24T19:56:51.585Z,24.71
2018-08-24T19:59:00.346Z,24.07
2018-08-24T20:01:04.414Z,24.14
2018-08-24T20:03:12.428Z,24.42
2018-08-24T20:05:16.367Z,24.33
2018-08-24T20:07:26.242Z,24.45
2018-08-24T20:09:36.802Z,24.28
2018-08-24T20:11:40.754Z,24.50
2018-08-24T20:13:44.948Z,24.55
2018-08-24T20:15:53.768Z,24.62
2018-08-24T20:17:57.563Z,24.70
2018-08-24T20:20:01.818Z,24.79
2018-08-24T20:22:09.981Z,24.50
2018-08-24T20:24:20.232Z,24.51
2018-08-24T20:26:36.014Z,24.42
2018-08-24T20:28:42.352Z,24.53
2018-08-24T20:30:47.526Z,24.48
2018-08-24T20:32:53.847Z,24.69
2018-08-24T20:35:00.023Z,24.49
2018-08-24T20:37:05.607Z,24.52
2018-08-24T20:39:12.228Z,24.56
2018-08-24T20:41:19.968Z,24.59
2018-08-24T20:43:26.989Z,24.54
2018-08-24T20:45:35.825Z,24.42
2018-08-24T20:47:40.398Z,24.67
2018-08-24T20:49:49.563Z,24.56
2018-08-24T20:51:57.011Z,24.61
2018-08-24T20:54:04.585Z,24.60
2018-08-24T20:56:10.506Z,24.33
2018-08-24T20:58:18.123Z,24.43
2018-08-24T21:00:24.474Z,24.25
2018-08-24T21:02:31.433Z,24.42
2018-08-24T21:04:35.935Z,24.37
2018-08-24T21:06:40.046Z,24.21
2018-08-24T21:08:43.927Z,24.56
2018-08-24T21:10:53.219Z,24.73
2018-08-24T21:13:01.809Z,24.70
2018-08-24T21:15:08.126Z,24.22
2018-08-24T21:17:12.292Z,24.40
2018-08-24T21:19:17.042Z,24.00
2018-08-24T21:21:21.142Z,24.35
2018-08-24T21:23:26.396Z,23.93
2018-08-24T21:25:34.443Z,23.91
2018-08-24T21:27:42.966Z,24.32
2018-08-24T21:29:47.723Z,24.40
2018-08-24T21:31:55.766Z,24.46
2018-08-24T21:34:02.118Z,24.36
2018-08-24T21:36:08.464Z,24.27
2018-08-24T21:38:12.514Z,24.21
2018-08-24T21:40:18.807Z,24.08
2018-08-24T21:42:23.703Z,24.25
2018-08-24T21:44:27.633Z,24.36
2018-08-24T21:46:31.884Z,24.26
2018-08-24T21:48:43.017Z,23.98
2018-08-24T21:50:46.856Z,24.30
2018-08-24T21:53:06.962Z,23.71
2018-08-24T21:55:11.717Z,24.46
2018-08-24T21:57:15.598Z,24.67
2018-08-24T21:59:20.864Z,24.95
2018-08-24T22:01:24.972Z,24.67
2018-08-24T22:03:28.756Z,24.59
2018-08-24T22:05:32.848Z,24.49
2018-08-24T22:07:36.489Z,24.40
2018-08-24T22:09:40.207Z,24.14
2018-08-24T22:11:44.645Z,24.49
2018-08-24T22:13:48.565Z,24.63
2018-08-24T22:15:52.313Z,24.87
2018-08-24T22:18:02.646Z,24.30
2018-08-24T22:20:09.778Z,24.28
2018-08-24T22:22:15.630Z,24.30
2018-08-24T22:24:19.562Z,24.10
2018-08-24T22:26:23.468Z,24.13
2018-08-24T22:28:27.335Z,24.25
2018-08-24T22:30:36.202Z,24.19
2018-08-24T22:32:40.217Z,24.06
2018-08-24T22:34:46.260Z,24.13
2018-08-24T22:36:51.988Z,24.04
2018-08-24T22:38:56.075Z,23.72
2018-08-24T22:41:02.098Z,24.19
2018-08-24T22:43:13.948Z,24.04
2018-08-24T22:45:19.305Z,24.21
2018-08-24T22:47:22.972Z,24.21
2018-08-24T22:49:26.729Z,24.14
2018-08-24T22:51:30.947Z,24.17
2018-08-24T22:53:34.754Z,24.08
2018-08-24T22:55:38.816Z,24.04
2018-08-24T22:57:42.708Z,24.19
2018-08-24T22:59:46.628Z,24.31
2018-08-24T23:01:50.625Z,24.23
2018-08-24T23:03:54.278Z,24.05
2018-08-24T23:05:58.044Z,24.32
2018-08-24T23:08:01.936Z,24.43
2018-08-24T23:10:08.907Z,24.27
2018-08-24T23:12:15.418Z,24.11
2018-08-24T23:14:21.316Z,24.40
2018-08-24T23:16:25.998Z,24.10
2018-08-24T23:18:30.192Z,24.02
2018-08-24T23:20:34.212Z,24.25
2018-08-24T23:22:38.325Z,24.20
2018-08-24T23:24:43.284Z,24.22
2018-08-24T23:26:47.191Z,24.32
2018-08-24T23:28:50.701Z,23.92
2018-08-24T23:30:54.293Z,23.76
2018-08-24T23:32:58.324Z,23.59
2018-08-24T23:35:02.670Z,23.58
2018-08-24T23:37:07.062Z,23.75
2018-08-24T23:39:14.327Z,23.69
2018-08-24T23:41:20.976Z,23.41
2018-08-24T23:43:28.345Z,23.68
2018-08-24T23:45:32.328Z,23.64
2018-08-24T23:47:35.884Z,23.74
2018-08-24T23:49:39.618Z,24.05
2018-08-24T23:51:43.939Z,23.46
2018-08-24T23:53:47.661Z,23.59
2018-08-24T23:55:51.228Z,23.66
2018-08-24T23:58:00.011Z,24.01
